Time,TemperatureF,DewpointF,PressureIn,WindDirection,WindDirectionDegrees,WindSpeedMPH,WindSpeedGustMPH,Humidity,HourlyPrecipIn,Conditions,Clouds,dailyrainin,SoftwareType,DateUTC
2013-05-18 00:01:00,47.3,21.0,29.53,West,264,0.0,2.0,35,0.00,,---,0.00,VWS V14.01,2013-05-18 06:01:00,
2013-05-18 00:11:00,47.5,21.2,29.50,West,264,0.0,2.0,35,0.00,,---,0.00,VWS V14.01,2013-05-18 06:11:00,
2013-05-18 00:21:00,47.6,21.3,29.50,NW,321,0.0,10.0,35,0.00,,---,0.00,VWS V14.01,2013-05-18 06:21:00,
2013-05-18 00:31:00,47.8,22.2,29.50,NW,321,0.0,1.0,36,0.00,,---,0.00,VWS V14.01,2013-05-18 06:31:00,
2013-05-18 00:41:00,47.2,21.6,29.50,NW,321,0.0,3.0,36,0.00,,---,0.00,VWS V14.01,2013-05-18 06:41:00,
2013-05-18 00:51:00,46.7,21.8,29.50,NW,321,0.0,0.0,37,0.00,,---,0.00,VWS V14.01,2013-05-18 06:51:00,
2013-05-18 01:01:00,45.6,23.3,29.52,NW,325,0.0,0.0,41,0.00,,---,0.00,VWS V14.01,2013-05-18 07:01:00,
2013-05-18 01:11:00,45.0,22.7,29.52,NW,325,0.0,0.0,41,0.00,,---,0.00,VWS V14.01,2013-05-18 07:11:00,
2013-05-18 01:21:00,45.3,23.6,29.52,NW,325,0.0,0.0,42,0.00,,---,0.00,VWS V14.01,2013-05-18 07:21:00,
2013-05-18 01:31:00,45.4,23.7,29.53,NNE,14,5.0,10.0,42,0.00,,---,0.00,VWS V14.01,2013-05-18 07:31:00,
2013-05-18 01:41:00,45.9,23.5,29.53,NE,53,3.0,9.0,41,0.00,,---,0.00,VWS V14.01,2013-05-18 07:41:00,
2013-05-18 01:51:00,46.1,23.1,29.53,NE,53,1.0,10.0,40,0.00,,---,0.00,VWS V14.01,2013-05-18 07:51:00,
2013-05-18 02:01:00,45.5,23.2,29.53,NNE,32,6.0,13.0,41,0.00,,---,0.00,VWS V14.01,2013-05-18 08:01:00,
2013-05-18 02:11:00,45.4,23.7,29.53,NNE,18,4.0,13.0,42,0.00,,---,0.00,VWS V14.01,2013-05-18 08:11:00,
2013-05-18 02:21:00,44.8,23.7,29.53,North,349,13.0,15.0,43,0.00,,---,0.00,VWS V14.01,2013-05-18 08:21:00,
2013-05-18 02:31:00,45.5,23.2,29.51,NNW,346,9.0,16.0,41,0.00,,---,0.00,VWS V14.01,2013-05-18 08:31:00,
2013-05-18 02:41:00,45.8,22.9,29.52,NW,309,12.0,16.0,40,0.00,,---,0.00,VWS V14.01,2013-05-18 08:41:00,
2013-05-18 02:51:00,45.3,23.0,29.54,NW,309,0.0,12.0,41,0.00,,---,0.00,VWS V14.01,2013-05-18 08:51:00,
2013-05-18 03:01:00,45.1,23.4,29.54,NW,315,6.0,9.0,42,0.00,,---,0.00,VWS V14.01,2013-05-18 09:01:00,
2013-05-18 03:11:00,43.6,23.7,29.55,NW,315,0.0,7.0,45,0.00,,---,0.00,VWS V14.01,2013-05-18 09:11:00,
2013-05-18 03:21:00,42.9,24.1,29.55,NW,315,0.0,0.0,47,0.00,,---,0.00,VWS V14.01,2013-05-18 09:21:00,
2013-05-18 03:31:00,42.2,23.4,29.55,NW,315,0.0,0.0,47,0.00,,---,0.00,VWS V14.01,2013-05-18 09:31:00,
2013-05-18 03:41:00,42.4,23.6,29.56,NW,315,0.0,0.0,47,0.00,,---,0.00,VWS V14.01,2013-05-18 09:41:00,
2013-05-18 03:51:00,42.0,24.2,29.55,NW,318,0.0,0.0,49,0.00,,---,0.00,VWS V14.01,2013-05-18 09:51:00,
2013-05-18 04:01:00,41.7,24.5,29.55,North,355,8.0,10.0,50,0.00,,---,0.00,VWS V14.01,2013-05-18 10:01:00,
2013-05-18 04:11:00,41.6,25.3,29.56,North,355,0.0,9.0,52,0.00,,---,0.00,VWS V14.01,2013-05-18 10:11:00,
2013-05-18 04:21:00,41.5,26.1,29.56,North,355,0.0,0.0,54,0.00,,---,0.00,VWS V14.01,2013-05-18 10:21:00,
2013-05-18 04:31:00,41.9,25.1,29.56,North,355,0.0,11.0,51,0.00,,---,0.00,VWS V14.01,2013-05-18 10:31:00,
2013-05-18 04:41:00,41.7,25.4,29.56,North,355,0.0,0.0,52,0.00,,---,0.00,VWS V14.01,2013-05-18 10:41:00,
2013-05-18 04:51:00,41.5,25.7,29.57,North,355,6.0,6.0,53,0.00,,---,0.00,VWS V14.01,2013-05-18 10:51:00,
2013-05-18 05:01:00,41.7,25.4,29.56,North,355,0.0,11.0,52,0.00,,---,0.00,VWS V14.01,2013-05-18 11:01:00,
2013-05-18 05:11:00,41.5,25.7,29.58,North,355,0.0,0.0,53,0.00,,---,0.00,VWS V14.01,2013-05-18 11:11:00,
2013-05-18 05:21:00,41.5,24.7,29.58,North,355,0.0,10.0,51,0.00,,---,0.00,VWS V14.01,2013-05-18 11:21:00,
2013-05-18 05:31:00,40.7,24.9,29.58,North,355,6.0,14.0,53,0.00,,---,0.00,VWS V14.01,2013-05-18 11:31:00,
2013-05-18 05:41:00,40.4,25.1,29.60,North,350,8.0,13.0,54,0.00,,---,0.00,VWS V14.01,2013-05-18 11:41:00,
2013-05-18 05:51:00,40.1,24.8,29.60,NNW,348,9.0,11.0,54,0.00,,---,0.00,VWS V14.01,2013-05-18 11:51:00,
2013-05-18 06:01:00,40.2,24.5,29.60,NNW,348,6.0,11.0,53,0.00,,---,0.00,VWS V14.01,2013-05-18 12:01:00,
2013-05-18 06:11:00,39.7,25.7,29.61,NNW,346,2.0,10.0,57,0.00,,---,0.00,VWS V14.01,2013-05-18 12:11:00,
2013-05-18 06:21:00,40.4,25.1,29.62,NNW,347,0.0,7.0,54,0.00,,---,0.00,VWS V14.01,2013-05-18 12:21:00,
2013-05-18 06:31:00,40.5,24.3,29.62,NNW,348,7.0,13.0,52,0.00,,---,0.00,VWS V14.01,2013-05-18 12:31:00,
2013-05-18 06:41:00,40.8,25.0,29.62,NNW,348,9.0,10.0,53,0.00,,---,0.00,VWS V14.01,2013-05-18 12:41:00,
2013-05-18 06:51:00,41.5,25.2,29.62,North,349,6.0,11.0,52,0.00,,---,0.00,VWS V14.01,2013-05-18 12:51:00,
2013-05-18 07:01:00,41.0,25.2,29.62,North,349,6.0,10.0,53,0.00,,---,0.00,VWS V14.01,2013-05-18 13:01:00,
2013-05-18 07:11:00,41.3,24.5,29.65,North,349,7.0,11.0,51,0.00,,---,0.00,VWS V14.01,2013-05-18 13:11:00,
2013-05-18 07:21:00,43.7,25.8,29.62,North,355,0.0,13.0,49,0.00,,---,0.00,VWS V14.01,2013-05-18 13:21:00,
2013-05-18 07:31:00,45.2,25.7,29.61,North,351,2.0,6.0,46,0.00,,---,0.00,VWS V14.01,2013-05-18 13:31:00,
2013-05-18 07:41:00,46.8,26.0,29.59,North,360,3.0,9.0,44,0.00,,---,0.00,VWS V14.01,2013-05-18 13:41:00,
2013-05-18 07:51:00,49.4,26.7,29.57,North,360,2.0,11.0,41,0.00,,---,0.00,VWS V14.01,2013-05-18 13:51:00,
2013-05-18 08:01:00,51.4,26.0,29.56,North,360,1.0,5.0,37,0.00,,---,0.00,VWS V14.01,2013-05-18 14:01:00,
2013-05-18 08:11:00,52.0,25.9,29.59,North,360,1.0,3.0,36,0.00,,---,0.00,VWS V14.01,2013-05-18 14:11:00,
2013-05-18 08:21:00,50.8,25.5,29.59,North,360,0.0,1.0,37,0.00,,---,0.00,VWS V14.01,2013-05-18 14:21:00,
2013-05-18 08:31:00,51.2,25.8,29.59,North,360,0.0,0.0,37,0.00,,---,0.00,VWS V14.01,2013-05-18 14:31:00,
2013-05-18 08:41:00,52.3,28.1,29.58,ESE,117,6.0,10.0,39,0.00,,---,0.00,VWS V14.01,2013-05-18 14:41:00,
2013-05-18 08:51:00,53.5,26.5,29.56,SE,128,6.0,14.0,35,0.00,,---,0.00,VWS V14.01,2013-05-18 14:51:00,
2013-05-18 09:01:00,54.1,25.6,29.56,SE,129,4.0,13.0,33,0.00,,---,0.00,VWS V14.01,2013-05-18 15:01:00,
2013-05-18 09:11:00,54.3,25.1,29.60,SE,138,4.0,11.0,32,0.00,,---,0.00,VWS V14.01,2013-05-18 15:11:00,
2013-05-18 09:21:00,54.9,26.4,29.59,SSE,153,3.0,7.0,33,0.00,,---,0.00,VWS V14.01,2013-05-18 15:21:00,
2013-05-18 09:31:00,54.8,23.2,29.59,SE,143,2.0,10.0,29,0.00,,---,0.00,VWS V14.01,2013-05-18 15:31:00,
2013-05-18 09:41:00,55.0,24.2,29.59,SE,133,2.0,5.0,30,0.00,,---,0.00,VWS V14.01,2013-05-18 15:41:00,
2013-05-18 09:51:00,55.9,28.0,29.58,SE,146,1.0,7.0,34,0.00,,---,0.00,VWS V14.01,2013-05-18 15:51:00,
2013-05-18 10:01:00,57.5,27.9,29.56,SSW,210,3.0,15.0,32,0.00,,---,0.00,VWS V14.01,2013-05-18 16:01:00,
2013-05-18 10:11:00,57.6,25.6,29.57,SSW,203,0.0,12.0,29,0.00,,---,0.00,VWS V14.01,2013-05-18 16:11:00,
2013-05-18 10:21:00,58.0,26.8,29.58,SW,217,10.0,13.0,30,0.00,,---,0.00,VWS V14.01,2013-05-18 16:21:00,
2013-05-18 10:31:00,58.6,28.1,29.57,SW,227,13.0,24.0,31,0.00,,---,0.00,VWS V14.01,2013-05-18 16:31:00,
2013-05-18 10:41:00,57.8,25.8,29.57,WSW,249,14.0,23.0,29,0.00,,---,0.00,VWS V14.01,2013-05-18 16:41:00,
2013-05-18 10:51:00,57.3,25.3,29.57,West,265,9.0,21.0,29,0.00,,---,0.00,VWS V14.01,2013-05-18 16:51:00,
2013-05-18 11:01:00,56.7,25.6,29.57,SSW,211,14.0,20.0,30,0.00,,---,0.00,VWS V14.01,2013-05-18 17:01:00,
2013-05-18 11:11:00,56.3,25.3,29.62,SW,221,6.0,17.0,30,0.00,,---,0.00,VWS V14.01,2013-05-18 17:11:00,
2013-05-18 11:21:00,55.6,24.7,29.62,SW,229,3.0,24.0,30,0.00,,---,0.00,VWS V14.01,2013-05-18 17:21:00,
2013-05-18 11:31:00,55.7,24.8,29.61,WSW,257,3.0,16.0,30,0.00,,---,0.00,VWS V14.01,2013-05-18 17:31:00,
2013-05-18 11:41:00,57.3,26.2,29.59,SSW,209,1.0,13.0,30,0.00,,---,0.00,VWS V14.01,2013-05-18 17:41:00,
2013-05-18 11:51:00,57.7,25.7,29.59,WSW,254,0.0,12.0,29,0.00,,---,0.00,VWS V14.01,2013-05-18 17:51:00,
2013-05-18 12:01:00,58.9,25.9,29.57,North,355,4.0,6.0,28,0.00,,---,0.00,VWS V14.01,2013-05-18 18:01:00,
2013-05-18 12:11:00,59.0,25.1,29.58,West,271,0.0,14.0,27,0.00,,---,0.00,VWS V14.01,2013-05-18 18:11:00,
2013-05-18 12:21:00,59.0,27.6,29.57,ESE,111,2.0,12.0,30,0.00,,---,0.00,VWS V14.01,2013-05-18 18:21:00,
2013-05-18 12:31:00,60.1,25.1,29.54,SSE,161,6.0,20.0,26,0.00,,---,0.00,VWS V14.01,2013-05-18 18:31:00,
2013-05-18 12:41:00,60.0,27.7,29.54,SSW,195,9.0,21.0,29,0.00,,---,0.00,VWS V14.01,2013-05-18 18:41:00,
2013-05-18 12:51:00,60.3,24.4,29.54,WSW,241,1.0,25.0,25,0.00,,---,0.00,VWS V14.01,2013-05-18 18:51:00,
2013-05-18 13:01:00,60.5,22.5,29.53,SSW,199,11.0,25.0,23,0.00,,---,0.00,VWS V14.01,2013-05-18 19:01:00,
2013-05-18 13:11:00,60.3,24.4,29.53,West,260,15.0,23.0,25,0.00,,---,0.00,VWS V14.01,2013-05-18 19:11:00,
2013-05-18 13:21:00,59.0,27.6,29.54,WNW,283,17.0,39.0,30,0.00,,---,0.00,VWS V14.01,2013-05-18 19:21:00,
2013-05-18 13:31:00,59.9,29.2,29.52,WNW,291,23.0,28.0,31,0.00,,---,0.00,VWS V14.01,2013-05-18 19:31:00,
2013-05-18 13:41:00,59.7,28.2,29.54,West,277,20.0,27.0,30,0.00,,---,0.00,VWS V14.01,2013-05-18 19:41:00,
2013-05-18 13:51:00,55.2,28.7,29.56,West,263,19.0,35.0,36,0.00,,---,0.00,VWS V14.01,2013-05-18 19:51:00,
2013-05-18 14:01:00,55.7,29.2,29.56,West,271,14.0,26.0,36,0.00,,---,0.00,VWS V14.01,2013-05-18 20:01:00,
2013-05-18 14:11:00,55.7,29.2,29.57,West,265,10.0,24.0,36,0.00,,---,0.00,VWS V14.01,2013-05-18 20:11:00,
2013-05-18 14:21:00,59.0,27.6,29.52,West,276,7.0,25.0,30,0.00,,---,0.00,VWS V14.01,2013-05-18 20:21:00,
2013-05-18 14:31:00,59.8,25.8,29.53,WNW,283,0.0,20.0,27,0.00,,---,0.00,VWS V14.01,2013-05-18 20:31:00,
2013-05-18 14:41:00,60.7,27.4,29.51,West,281,0.0,6.0,28,0.00,,---,0.00,VWS V14.01,2013-05-18 20:41:00,
2013-05-18 14:51:00,60.4,26.3,29.52,WSW,257,0.0,14.0,27,0.00,,---,0.00,VWS V14.01,2013-05-18 20:51:00,
2013-05-18 15:01:00,62.0,26.8,29.50,SW,220,18.0,20.0,26,0.00,,---,0.00,VWS V14.01,2013-05-18 21:01:00,
2013-05-18 15:11:00,60.2,27.0,29.53,SW,232,4.0,20.0,28,0.00,,---,0.00,VWS V14.01,2013-05-18 21:11:00,
2013-05-18 15:21:00,58.6,24.8,29.55,WSW,248,16.0,26.0,27,0.00,,---,0.00,VWS V14.01,2013-05-18 21:21:00,
2013-05-18 15:31:00,55.7,24.0,29.58,SW,233,22.0,33.0,29,0.00,,---,0.00,VWS V14.01,2013-05-18 21:31:00,
2013-05-18 15:41:00,55.5,25.4,29.59,WSW,248,15.0,27.0,31,0.00,,---,0.00,VWS V14.01,2013-05-18 21:41:00,
2013-05-18 15:51:00,56.7,24.8,29.58,WSW,242,3.0,17.0,29,0.00,,---,0.00,VWS V14.01,2013-05-18 21:51:00,
2013-05-18 16:01:00,58.0,26.0,29.55,WSW,252,2.0,12.0,29,0.00,,---,0.00,VWS V14.01,2013-05-18 22:01:00,
2013-05-18 16:11:00,59.0,28.4,29.55,SSE,149,11.0,14.0,31,0.00,,---,0.00,VWS V14.01,2013-05-18 22:11:00,
2013-05-18 16:21:00,59.4,29.6,29.53,ESE,106,11.0,19.0,32,0.00,,---,0.00,VWS V14.01,2013-05-18 22:21:00,
2013-05-18 16:31:00,58.2,29.3,29.54,ESE,106,2.0,17.0,33,0.00,,---,0.00,VWS V14.01,2013-05-18 22:31:00,
2013-05-18 16:41:00,56.9,28.8,29.56,ESE,105,1.0,13.0,34,0.00,,---,0.00,VWS V14.01,2013-05-18 22:41:00,
2013-05-18 16:51:00,56.6,26.3,29.58,SSW,211,20.0,23.0,31,0.00,,---,0.00,VWS V14.01,2013-05-18 22:51:00,
2013-05-18 17:01:00,54.8,26.3,29.59,SSW,211,17.0,26.0,33,0.00,,---,0.00,VWS V14.01,2013-05-18 23:01:00,
2013-05-18 17:11:00,53.9,26.2,29.61,West,265,7.0,20.0,34,0.00,,---,0.00,VWS V14.01,2013-05-18 23:11:00,
2013-05-18 17:21:00,53.9,26.2,29.60,SW,231,0.0,20.0,34,0.00,,---,0.00,VWS V14.01,2013-05-18 23:21:00,
2013-05-18 17:31:00,54.5,26.0,29.61,WSW,254,14.0,17.0,33,0.00,,---,0.00,VWS V14.01,2013-05-18 23:31:00,
2013-05-18 17:41:00,54.3,26.5,29.61,WSW,246,9.0,18.0,34,0.00,,---,0.00,VWS V14.01,2013-05-18 23:41:00,
2013-05-18 17:51:00,53.9,31.4,29.61,North,355,15.0,15.0,42,0.00,,---,0.00,VWS V14.01,2013-05-18 23:51:00,
2013-05-18 18:01:00,51.3,32.3,29.62,NNW,344,16.0,28.0,48,0.00,,---,0.00,VWS V14.01,2013-05-19 00:01:00,
2013-05-18 18:11:00,50.0,32.6,29.64,NNW,341,24.0,28.0,51,0.00,,---,0.00,VWS V14.01,2013-05-19 00:11:00,
2013-05-18 18:21:00,49.2,31.9,29.64,WNW,283,17.0,29.0,51,0.00,,---,0.00,VWS V14.01,2013-05-19 00:21:00,
2013-05-18 18:31:00,49.0,33.1,29.66,WNW,300,15.0,31.0,54,0.00,,---,0.00,VWS V14.01,2013-05-19 00:31:00,
2013-05-18 18:41:00,49.0,32.6,29.66,NW,325,12.0,25.0,53,0.00,,---,0.00,VWS V14.01,2013-05-19 00:41:00,
2013-05-18 18:51:00,49.2,31.9,29.67,West,279,7.0,26.0,51,0.00,,---,0.00,VWS V14.01,2013-05-19 00:51:00,
2013-05-18 19:01:00,47.8,32.9,29.69,NNW,329,13.0,31.0,56,0.00,,---,0.00,VWS V14.01,2013-05-19 01:01:00,
2013-05-18 19:11:00,46.4,33.3,29.63,WNW,284,13.0,23.0,60,0.00,,---,0.00,VWS V14.01,2013-05-19 01:11:00,
2013-05-18 19:21:00,46.1,32.2,29.63,WNW,298,6.0,24.0,58,0.00,,---,0.00,VWS V14.01,2013-05-19 01:21:00,
2013-05-18 19:31:00,46.2,31.8,29.62,WNW,298,14.0,18.0,57,0.00,,---,0.00,VWS V14.01,2013-05-19 01:31:00,
2013-05-18 19:41:00,45.3,32.2,29.63,WNW,289,10.0,29.0,60,0.00,,---,0.00,VWS V14.01,2013-05-19 01:41:00,
2013-05-18 19:51:00,44.9,31.0,29.63,WNW,284,18.0,25.0,58,0.00,,---,0.00,VWS V14.01,2013-05-19 01:51:00,
2013-05-18 20:01:00,46.8,29.6,29.61,NW,322,13.0,25.0,51,0.00,,---,0.00,VWS V14.01,2013-05-19 02:01:00,
2013-05-18 20:11:00,47.0,29.3,29.58,NNW,328,5.0,22.0,50,0.00,,---,0.00,VWS V14.01,2013-05-19 02:11:00,
2013-05-18 20:21:00,47.0,31.2,29.58,North,5,17.0,19.0,54,0.00,,---,0.00,VWS V14.01,2013-05-19 02:21:00,
2013-05-18 20:31:00,46.3,32.3,29.58,NNW,344,10.0,18.0,58,0.00,,---,0.00,VWS V14.01,2013-05-19 02:31:00,
2013-05-18 20:41:00,46.1,32.2,29.58,NW,318,12.0,15.0,58,0.00,,---,0.00,VWS V14.01,2013-05-19 02:41:00,
2013-05-18 20:51:00,46.0,31.2,29.58,West,263,7.0,17.0,56,0.00,,---,0.00,VWS V14.01,2013-05-19 02:51:00,
2013-05-18 21:01:00,46.8,29.2,29.58,WNW,291,10.0,24.0,50,0.00,,---,0.00,VWS V14.01,2013-05-19 03:01:00,
2013-05-18 21:11:00,46.5,27.9,29.55,West,272,10.0,26.0,48,0.00,,---,0.00,VWS V14.01,2013-05-19 03:11:00,
2013-05-18 21:21:00,46.1,28.0,29.54,NNW,336,6.0,18.0,49,0.00,,---,0.00,VWS V14.01,2013-05-19 03:21:00,
2013-05-18 21:31:00,46.4,28.3,29.55,NW,325,9.0,13.0,49,0.00,,---,0.00,VWS V14.01,2013-05-19 03:31:00,
2013-05-18 21:41:00,45.8,30.6,29.54,NW,326,0.0,11.0,55,0.00,,---,0.00,VWS V14.01,2013-05-19 03:41:00,
2013-05-18 21:51:00,45.0,29.8,29.57,NW,326,0.0,7.0,55,0.00,,---,0.00,VWS V14.01,2013-05-19 03:51:00,
2013-05-18 22:01:00,45.0,28.5,29.57,NW,326,0.0,0.0,52,0.00,,---,0.00,VWS V14.01,2013-05-19 04:01:00,
2013-05-18 22:11:00,45.3,28.7,29.57,WSW,252,6.0,23.0,52,0.00,,---,0.00,VWS V14.01,2013-05-19 04:11:00,
2013-05-18 22:21:00,44.1,30.7,29.58,WSW,254,0.0,9.0,59,0.00,,---,0.00,VWS V14.01,2013-05-19 04:21:00,
2013-05-18 22:31:00,43.5,30.5,29.58,WSW,254,0.0,0.0,60,0.00,,---,0.00,VWS V14.01,2013-05-19 04:31:00,
2013-05-18 22:41:00,42.6,30.5,29.58,WSW,254,0.0,0.0,62,0.00,,---,0.00,VWS V14.01,2013-05-19 04:41:00,
2013-05-18 22:51:00,41.7,30.0,29.60,WSW,254,0.0,0.0,63,0.00,,---,0.00,VWS V14.01,2013-05-19 04:51:00,
2013-05-18 23:01:00,42.8,30.3,29.56,NNW,344,5.0,12.0,61,0.00,,---,0.00,VWS V14.01,2013-05-19 05:01:00,
2013-05-18 23:11:00,42.6,30.1,29.56,NNW,344,6.0,10.0,61,0.00,,---,0.00,VWS V14.01,2013-05-19 05:11:00,
2013-05-18 23:21:00,42.3,29.8,29.58,NNW,344,0.0,7.0,61,0.00,,---,0.00,VWS V14.01,2013-05-19 05:21:00,
2013-05-18 23:31:00,42.8,29.5,29.55,NNW,344,0.0,0.0,59,0.00,,---,0.00,VWS V14.01,2013-05-19 05:31:00,
2013-05-18 23:41:00,42.2,28.5,29.58,NNW,344,0.0,0.0,58,0.00,,---,0.00,VWS V14.01,2013-05-19 05:41:00,
2013-05-18 23:51:00,41.3,28.9,29.57,NNW,344,0.0,0.0,61,0.00,,---,0.00,VWS V14.01,2013-05-19 05:51:00,